Time;durP1;ratioP1;P1;durP2;ratioP2;P2;SDS_P1;SDS_P2;PMS_P1;PMS_P2;Temp;Humidity;BMP_temperature;BMP_pressure;BME280_temperature;BME280_humidity;BME280_pressure;Samples;Min_cycle;Max_cycle;Signal;HPM_P1;HPM_P2
2021/07/11 00:01:46;;;;;;;6.15;3.88;;;15.90;99.90;;;15.56;100.00;101344.94;4168343;28;20037;-74
2021/07/11 00:03:47;;;;;;;7.68;3.83;;;15.90;99.90;;;15.44;100.00;101339.16;4169084;28;20022;-74
2021/07/11 00:05:48;;;;;;;10.23;4.03;;;15.90;99.90;;;15.47;100.00;101346.03;4168038;28;20053;-74
2021/07/11 00:07:50;;;;;;;9.07;4.22;;;15.90;99.90;;;15.48;100.00;101340.50;4168068;28;20069;-74
2021/07/11 00:09:51;;;;;;;11.18;4.22;;;15.90;99.90;;;15.57;100.00;101348.44;4168199;28;20028;-74
2021/07/11 00:11:52;;;;;;;6.63;3.72;;;16.00;99.90;;;15.57;100.00;101337.81;4168131;28;20451;-74
2021/07/11 00:13:53;;;;;;;7.43;3.53;;;16.00;99.90;;;15.68;100.00;101340.91;4151586;28;20042;-74
2021/07/11 00:15:54;;;;;;;10.38;4.47;;;16.00;99.90;;;15.63;100.00;101337.13;4169011;28;20373;-74
2021/07/11 00:17:57;;;;;;;7.70;4.13;;;16.00;99.90;;;15.63;100.00;101343.25;4169296;28;20057;-73
2021/07/11 00:19:58;;;;;;;8.07;3.70;;;15.90;99.90;;;15.57;100.00;101343.97;4167642;28;20033;-74
2021/07/11 00:21:58;;;;;;;8.32;5.35;;;15.90;99.90;;;15.38;100.00;101339.84;4151346;28;20037;-74
2021/07/11 00:23:59;;;;;;;8.52;4.47;;;15.80;99.90;;;15.47;100.00;101332.72;4168936;28;20018;-74
2021/07/11 00:26:00;;;;;;;11.35;4.28;;;15.80;99.90;;;15.45;100.00;101332.03;4184017;28;20116;-74
2021/07/11 00:28:01;;;;;;;11.65;4.38;;;15.80;99.90;;;15.44;100.00;101331.19;4167900;28;20026;-74
2021/07/11 00:30:04;;;;;;;11.70;4.30;;;15.70;99.90;;;15.38;100.00;101326.56;4168984;28;20028;-74
2021/07/11 00:32:06;;;;;;;7.80;4.30;;;15.70;99.90;;;15.26;100.00;101341.22;4167629;28;20053;-74
2021/07/11 00:34:06;;;;;;;11.00;4.63;;;15.60;99.90;;;15.12;100.00;101331.31;4167560;28;20072;-74
2021/07/11 00:36:07;;;;;;;13.00;4.55;;;15.60;99.90;;;15.15;100.00;101338.13;4167759;28;20017;-74
2021/07/11 00:38:08;;;;;;;7.55;4.40;;;15.50;99.90;;;15.12;100.00;101333.97;4167690;28;20068;-74
2021/07/11 00:40:11;;;;;;;9.32;4.20;;;15.50;99.90;;;15.16;100.00;101329.16;4167433;28;20041;-74
2021/07/11 00:42:14;;;;;;;11.27;4.55;;;15.50;99.90;;;15.11;100.00;101332.34;4167106;28;20026;-74
2021/07/11 00:44:15;;;;;;;7.87;5.03;;;15.50;99.90;;;15.16;100.00;101340.63;4151216;28;20060;-74
2021/07/11 00:46:16;;;;;;;13.10;4.35;;;15.50;99.90;;;15.01;100.00;101342.31;4151129;28;20021;-74
2021/07/11 00:48:18;;;;;;;6.20;4.25;;;15.50;99.90;;;15.11;100.00;101347.44;4168334;28;20500;-74
2021/07/11 00:50:19;;;;;;;6.97;4.45;;;15.50;99.90;;;15.18;100.00;101335.94;4167506;28;20048;-74
2021/07/11 00:52:20;;;;;;;5.20;3.60;;;15.60;99.90;;;15.26;100.00;101338.56;4151125;28;20675;-74
2021/07/11 00:54:22;;;;;;;10.93;5.15;;;15.60;99.90;;;15.20;100.00;101335.78;4168657;28;20025;-74
2021/07/11 00:56:23;;;;;;;10.00;4.85;;;15.60;99.90;;;15.10;100.00;101343.13;4167428;28;20496;-74
2021/07/11 00:58:24;;;;;;;8.20;5.13;;;15.70;99.90;;;15.17;100.00;101338.78;4150779;28;20036;-73
2021/07/11 01:00:25;;;;;;;13.15;5.15;;;15.70;99.90;;;15.25;100.00;101347.56;4167334;28;20045;-74
2021/07/11 01:02:56;;;;;;;11.35;4.95;;;15.70;99.90;;;15.34;100.00;101338.56;4167311;28;20037;-74
2021/07/11 01:05:09;;;;;;;6.47;3.90;;;15.80;99.90;;;15.43;100.00;101337.53;4166922;28;20048;-74
2021/07/11 01:07:11;;;;;;;10.80;4.47;;;15.80;99.90;;;15.45;100.00;101332.84;4168506;28;20055;-74
2021/07/11 01:09:31;;;;;;;10.20;4.38;;;15.90;99.90;;;15.48;100.00;101351.16;4168454;28;20396;-74
2021/07/11 01:11:43;;;;;;;8.73;4.93;;;15.90;99.90;;;15.55;100.00;101350.47;4151925;28;20028;-74
2021/07/11 01:13:46;;;;;;;8.75;4.43;;;15.90;99.90;;;15.55;100.00;101353.94;4167327;28;20087;-74
2021/07/11 01:15:52;;;;;;;9.20;4.50;;;15.90;99.90;;;15.60;100.00;101343.63;4167278;28;20485;-74
2021/07/11 01:17:56;;;;;;;6.30;3.78;;;16.00;99.90;;;15.62;100.00;101344.25;4150834;28;20037;-74
2021/07/11 01:20:34;;;;;;;5.68;3.50;;;16.00;99.90;;;15.72;100.00;101352.84;4167020;28;20033;-74
2021/07/11 01:22:44;;;;;;;6.22;3.70;;;16.10;99.90;;;15.69;100.00;101352.38;4168216;28;20033;-74
2021/07/11 01:25:01;;;;;;;7.15;4.10;;;16.10;99.90;;;15.60;100.00;101345.44;4150910;28;20491;-74
2021/07/11 01:27:03;;;;;;;8.60;4.57;;;16.10;99.90;;;15.71;100.00;101345.88;4167255;28;20035;-74
2021/07/11 01:29:05;;;;;;;10.73;5.25;;;16.10;99.90;;;15.73;100.00;101345.72;4167137;28;20018;-74
2021/07/11 01:31:07;;;;;;;8.82;3.97;;;16.10;99.90;;;15.79;100.00;101358.31;4167389;28;20408;-74
2021/07/11 01:33:10;;;;;;;4.80;4.07;;;16.20;99.90;;;15.77;100.00;101352.34;4167159;28;20574;-74
2021/07/11 01:35:12;;;;;;;9.45;4.60;;;16.20;99.90;;;15.76;100.00;101340.88;4167206;28;20037;-74
2021/07/11 01:37:15;;;;;;;9.57;4.40;;;16.20;99.90;;;15.72;100.00;101344.03;4167106;28;20087;-74
2021/07/11 01:39:16;;;;;;;9.38;5.72;;;16.20;99.90;;;15.72;100.00;101336.06;4170195;28;20057;-74
2021/07/11 01:41:20;;;;;;;4.72;3.55;;;16.20;99.90;;;15.79;100.00;101337.03;4170519;28;20029;-74
2021/07/11 01:43:23;;;;;;;6.80;4.30;;;16.20;99.90;;;15.99;100.00;101343.56;4170401;28;20033;-73
2021/07/11 01:45:24;;;;;;;10.35;4.78;;;16.30;99.90;;;16.12;100.00;101346.47;4170311;28;20036;-74
2021/07/11 01:47:26;;;;;;;7.70;5.10;;;16.30;99.90;;;16.04;100.00;101357.16;4154084;28;20459;-74
2021/07/11 01:49:27;;;;;;;10.40;4.93;;;16.40;99.90;;;15.86;100.00;101344.13;4170135;28;20088;-74
2021/07/11 01:51:28;;;;;;;8.05;4.65;;;16.40;99.90;;;15.87;100.00;101343.13;4170250;28;20037;-74
2021/07/11 01:53:39;;;;;;;6.18;4.53;;;16.40;99.90;;;15.96;100.00;101343.91;4170202;28;20508;-74
2021/07/11 01:55:40;;;;;;;14.13;5.72;;;16.30;99.90;;;15.95;100.00;101339.56;4170305;28;20030;-74
2021/07/11 01:57:41;;;;;;;7.72;4.90;;;16.30;99.90;;;15.95;100.00;101337.75;4170193;28;20045;-74
2021/07/11 01:59:42;;;;;;;12.60;5.50;;;16.40;99.90;;;15.86;100.00;101338.00;4170158;28;20085;-74
2021/07/11 02:01:43;;;;;;;8.38;5.50;;;16.30;99.90;;;15.86;100.00;101338.81;4153674;28;20030;-74
2021/07/11 02:03:44;;;;;;;7.95;4.60;;;16.30;99.90;;;15.87;100.00;101339.63;4169664;28;20481;-74
2021/07/11 02:05:46;;;;;;;9.18;4.13;;;16.30;99.90;;;15.89;100.00;101342.94;4171323;28;20088;-74
2021/07/11 02:07:48;;;;;;;6.57;4.05;;;16.30;99.90;;;15.87;100.00;101340.47;4169917;28;20048;-74
2021/07/11 02:09:49;;;;;;;8.00;5.00;;;16.30;99.90;;;15.91;100.00;101346.28;4171403;28;20134;-74
2021/07/11 02:11:50;;;;;;;9.60;4.82;;;16.30;99.90;;;15.76;100.00;101332.06;4171318;28;20032;-74
2021/07/11 02:14:23;;;;;;;5.03;4.30;;;16.30;99.90;;;15.74;100.00;101331.44;4170043;28;20112;-74
2021/07/11 02:16:33;;;;;;;5.70;4.45;;;16.30;99.90;;;15.84;100.00;101335.50;4154636;28;20038;-74
2021/07/11 02:18:36;;;;;;;5.97;3.92;;;16.30;99.90;;;15.78;100.00;101328.22;4169745;28;20100;-74
2021/07/11 02:20:38;;;;;;;5.85;4.05;;;16.20;99.90;;;15.78;100.00;101330.06;4170014;28;20052;-74
2021/07/11 02:22:47;;;;;;;5.60;3.45;;;16.20;99.90;;;15.82;100.00;101332.19;4169594;28;20029;-74
2021/07/11 02:24:49;;;;;;;5.05;4.07;;;16.30;99.90;;;15.84;100.00;101327.53;4169783;28;20060;-74
2021/07/11 02:26:51;;;;;;;6.53;3.80;;;16.30;99.90;;;15.80;100.00;101328.88;4169807;28;20021;-74
2021/07/11 02:28:53;;;;;;;8.02;4.40;;;16.30;99.90;;;15.67;100.00;101320.66;4169754;28;20055;-74
2021/07/11 02:30:59;;;;;;;6.68;4.43;;;16.20;99.90;;;15.72;100.00;101326.25;4170819;28;20036;-74
2021/07/11 02:33:05;;;;;;;8.65;3.75;;;16.20;99.90;;;15.75;100.00;101323.25;4169536;28;20034;-74
2021/07/11 02:35:06;;;;;;;6.00;3.45;;;16.20;99.90;;;15.76;100.00;101327.56;4169695;28;20539;-74
2021/07/11 02:37:17;;;;;;;6.50;3.53;;;16.20;99.90;;;15.71;100.00;101334.44;4169432;28;20120;-74
2021/07/11 02:39:20;;;;;;;5.45;3.97;;;16.10;99.90;;;15.72;100.00;101326.25;4175596;28;20040;-74
2021/07/11 02:41:25;;;;;;;4.90;3.65;;;16.10;99.90;;;15.71;100.00;101318.47;4169525;28;20504;-74
2021/07/11 02:43:26;;;;;;;5.80;3.95;;;16.10;99.90;;;15.64;100.00;101318.34;4169486;28;20093;-74
2021/07/11 02:45:28;;;;;;;3.50;3.20;;;16.10;99.90;;;15.67;100.00;101307.34;4169531;28;20025;-74
2021/07/11 02:47:31;;;;;;;4.88;3.95;;;16.10;99.90;;;15.68;100.00;101316.16;4153000;28;20116;-74
2021/07/11 02:49:34;;;;;;;5.85;4.15;;;16.10;99.90;;;15.66;100.00;101315.50;4169190;28;20025;-74
2021/07/11 02:51:41;;;;;;;5.00;4.30;;;16.10;99.90;;;15.61;100.00;101307.22;4169376;28;20484;-74
2021/07/11 02:53:44;;;;;;;6.80;4.43;;;16.00;99.90;;;15.55;100.00;101307.91;4169493;28;20060;-74
2021/07/11 02:55:47;;;;;;;4.32;3.92;;;16.00;99.90;;;15.50;100.00;101309.25;4169422;28;20021;-74
2021/07/11 02:57:55;;;;;;;4.53;3.55;;;16.00;99.90;;;15.57;100.00;101290.78;4169454;28;20412;-74
2021/07/11 02:59:59;;;;;;;8.40;4.22;;;16.00;99.90;;;15.73;100.00;101290.69;4152944;28;20033;-74
2021/07/11 03:02:05;;;;;;;4.25;3.38;;;16.10;99.90;;;15.73;100.00;101296.00;4169413;28;20045;-74
2021/07/11 03:04:06;;;;;;;3.25;2.85;;;16.10;99.90;;;15.70;100.00;101292.88;4169058;28;20517;-74
2021/07/11 03:06:07;;;;;;;4.32;3.70;;;16.10;99.90;;;15.68;100.00;101293.03;4169271;28;20472;-74
2021/07/11 03:08:08;;;;;;;3.05;2.75;;;16.10;99.90;;;15.60;100.00;101282.44;4169131;28;20077;-74
2021/07/11 03:10:11;;;;;;;6.93;3.38;;;16.10;99.90;;;15.56;100.00;101273.16;4169212;28;20040;-74
2021/07/11 03:12:14;;;;;;;8.15;4.25;;;16.00;99.90;;;15.53;100.00;101278.03;4169214;28;20041;-74
2021/07/11 03:14:16;;;;;;;6.43;3.65;;;16.00;99.90;;;15.60;100.00;101273.63;4169108;28;20021;-74
2021/07/11 03:16:21;;;;;;;5.93;3.03;;;16.00;99.90;;;15.55;100.00;101274.19;4169331;28;20033;-74
2021/07/11 03:18:22;;;;;;;8.00;3.42;;;16.00;99.90;;;15.64;100.00;101280.28;4169926;28;20109;-74
2021/07/11 03:20:23;;;;;;;4.25;3.08;;;16.00;99.90;;;15.59;100.00;101270.16;4169033;28;20025;-74
2021/07/11 03:22:29;;;;;;;5.97;3.08;;;16.00;99.90;;;15.68;100.00;101265.63;4168857;28;20036;-74
2021/07/11 03:24:32;;;;;;;6.75;3.45;;;16.00;99.90;;;15.67;100.00;101279.91;4152754;28;20025;-74
2021/07/11 03:26:34;;;;;;;4.43;3.22;;;16.10;99.90;;;15.71;100.00;101271.41;4169013;28;20030;-74
2021/07/11 03:28:36;;;;;;;8.63;4.50;;;16.10;99.90;;;15.58;100.00;101270.34;4169007;28;20509;-74
2021/07/11 03:30:43;;;;;;;6.18;3.40;;;16.10;99.90;;;15.66;100.00;101272.94;4152288;28;20034;-74
2021/07/11 03:32:59;;;;;;;4.68;3.10;;;16.10;99.90;;;15.68;100.00;101265.63;4152317;28;20049;-74
2021/07/11 03:35:01;;;;;;;5.63;3.78;;;16.10;99.90;;;15.68;100.00;101268.28;4168628;28;20041;-74
2021/07/11 03:37:11;;;;;;;5.20;3.90;;;16.10;99.90;;;15.69;100.00;101278.75;4168642;28;20029;-74
2021/07/11 03:39:12;;;;;;;3.80;3.40;;;16.10;99.90;;;15.68;100.00;101276.28;4168534;28;20045;-74
2021/07/11 03:41:19;;;;;;;5.65;3.78;;;16.10;99.90;;;15.75;100.00;101274.53;4160587;28;20468;-74
2021/07/11 03:43:24;;;;;;;6.10;3.75;;;16.10;99.90;;;15.71;100.00;101267.94;4152312;28;20056;-74
2021/07/11 03:45:27;;;;;;;6.88;3.67;;;16.10;99.90;;;15.70;100.00;101264.44;4168554;28;20030;-74
2021/07/11 03:47:43;;;;;;;8.55;3.90;;;16.20;99.90;;;15.63;100.00;101265.31;4168647;28;20060;-74
2021/07/11 03:49:49;;;;;;;5.15;2.90;;;16.10;99.90;;;15.63;100.00;101265.31;4169510;28;20025;-74
2021/07/11 03:51:56;;;;;;;5.38;3.65;;;16.10;99.90;;;15.67;100.00;101275.44;4169607;28;20030;-74
2021/07/11 03:53:59;;;;;;;6.30;3.70;;;16.10;99.90;;;15.69;100.00;101268.09;4168614;28;20022;-74
2021/07/11 03:56:01;;;;;;;6.55;3.30;;;16.10;99.90;;;15.72;100.00;101270.41;4168528;28;20033;-74
2021/07/11 03:58:06;;;;;;;5.65;3.80;;;16.20;99.90;;;15.94;100.00;101277.56;4151947;28;20026;-74
2021/07/11 04:00:08;;;;;;;6.35;3.60;;;16.20;99.90;;;15.90;100.00;101270.09;4167779;28;20033;-74
2021/07/11 04:02:10;;;;;;;5.03;3.95;;;16.30;99.90;;;15.83;100.00;101271.84;4169213;28;20504;-74
2021/07/11 04:04:19;;;;;;;5.72;3.83;;;16.30;99.90;;;15.87;100.00;101275.78;4168113;28;20033;-74
2021/07/11 04:06:22;;;;;;;3.53;3.17;;;16.30;99.90;;;15.89;100.00;101279.09;4168187;28;20029;-74
2021/07/11 04:08:25;;;;;;;6.70;4.20;;;16.30;99.90;;;15.87;100.00;101270.47;4168190;28;20036;-74
2021/07/11 04:10:29;;;;;;;5.22;3.92;;;16.30;99.90;;;15.82;100.00;101271.00;4168276;28;20048;-74
2021/07/11 04:12:32;;;;;;;7.93;3.85;;;16.30;99.90;;;15.84;100.00;101271.66;4168237;28;20408;-74
2021/07/11 04:14:33;;;;;;;5.30;3.63;;;16.30;99.90;;;15.81;100.00;101272.00;4168093;28;20120;-74
2021/07/11 04:16:35;;;;;;;6.55;3.63;;;16.30;99.90;;;15.78;100.00;101264.38;4168213;28;20041;-74
2021/07/11 04:18:49;;;;;;;6.88;3.65;;;16.30;99.90;;;15.83;100.00;101266.53;4151353;28;20029;-74
2021/07/11 04:20:55;;;;;;;7.40;4.45;;;16.30;99.90;;;15.77;100.00;101269.88;4167914;28;20108;-74
2021/07/11 04:22:59;;;;;;;6.70;4.03;;;16.30;99.90;;;15.78;100.00;101276.84;4168041;28;20113;-74
2021/07/11 04:25:01;;;;;;;;;;;16.30;99.90;;;15.80;100.00;101272.19;4168223;28;20116;-74
2021/07/11 04:27:03;;;;;;;8.55;5.57;;;16.30;99.90;;;15.82;100.00;101276.34;4184310;28;19915;-74
2021/07/11 04:29:05;;;;;;;4.53;3.53;;;16.40;99.90;;;15.89;100.00;101277.25;4167758;28;20032;-74
2021/07/11 04:31:06;;;;;;;5.40;3.50;;;16.30;99.90;;;15.90;100.00;101284.25;4167924;28;20091;-74
2021/07/11 04:33:10;;;;;;;4.63;4.10;;;16.30;99.90;;;15.83;100.00;101279.81;4151135;28;20485;-74
2021/07/11 04:35:12;;;;;;;5.35;3.50;;;16.30;99.90;;;15.91;100.00;101282.41;4167899;28;20025;-74
2021/07/11 04:37:13;;;;;;;5.25;3.30;;;16.30;99.90;;;15.92;100.00;101284.06;4168824;28;20026;-74
2021/07/11 04:39:14;;;;;;;6.72;3.53;;;16.40;99.90;;;15.94;100.00;101284.72;4167649;28;20045;-74
2021/07/11 04:41:15;;;;;;;6.53;5.45;;;16.40;99.90;;;15.84;100.00;101281.47;4175939;28;20020;-74
2021/07/11 04:43:17;;;;;;;9.65;5.07;;;16.40;99.90;;;15.83;100.00;101282.50;4167602;28;20053;-74
2021/07/11 04:45:19;;;;;;;8.52;5.20;;;16.40;99.90;;;15.74;100.00;101279.03;4168739;28;20055;-74
2021/07/11 04:47:20;;;;;;;6.82;4.90;;;16.30;99.90;;;15.79;100.00;101275.84;4167740;28;20152;-74
2021/07/11 04:49:22;;;;;;;8.55;5.28;;;16.40;99.90;;;15.77;100.00;101277.88;4151017;28;20079;-74
2021/07/11 04:51:23;;;;;;;8.02;4.55;;;16.30;99.90;;;15.80;100.00;101262.34;4168799;28;20034;-74
2021/07/11 04:53:24;;;;;;;7.05;3.50;;;16.30;99.90;;;15.87;100.00;101270.47;4168665;28;20527;-74
2021/07/11 04:55:26;;;;;;;6.43;3.65;;;16.30;99.90;;;15.91;100.00;101274.44;4168842;28;20029;-74
2021/07/11 04:57:27;;;;;;;5.85;4.00;;;16.30;99.90;;;15.98;100.00;101257.56;4167596;28;20570;-74
2021/07/11 04:59:29;;;;;;;5.15;3.53;;;16.40;99.90;;;15.96;100.00;101264.06;4168704;28;20033;-74
2021/07/11 05:01:30;;;;;;;6.18;3.38;;;16.40;99.90;;;15.98;100.00;101268.22;4167413;28;20029;-74
2021/07/11 05:03:31;;;;;;;4.30;3.80;;;16.40;99.90;;;16.02;100.00;101263.38;4168199;28;20033;-74
2021/07/11 05:05:35;;;;;;;5.55;4.15;;;16.40;99.90;;;16.03;100.00;101262.38;4150988;28;20021;-74
2021/07/11 05:07:36;;;;;;;5.40;4.20;;;16.50;99.90;;;16.04;100.00;101266.66;4167419;28;20049;-74
2021/07/11 05:09:37;;;;;;;4.63;3.33;;;16.50;99.90;;;16.02;100.00;101268.69;4150851;28;20022;-73
2021/07/11 05:11:38;;;;;;;4.65;2.88;;;16.50;99.90;;;16.09;100.00;101274.97;4168234;28;20117;-74
2021/07/11 05:13:39;;;;;;;5.70;3.80;;;16.50;99.90;;;16.07;100.00;101268.16;4166815;28;20378;-74
2021/07/11 05:15:40;;;;;;;5.45;3.38;;;16.50;99.90;;;16.08;100.00;101273.28;4167264;28;20033;-74
2021/07/11 05:17:41;;;;;;;5.65;3.53;;;16.50;99.90;;;16.07;100.00;101262.84;4168372;28;20029;-74
2021/07/11 05:19:42;;;;;;;6.75;3.50;;;16.60;99.90;;;16.10;100.00;101267.81;4168196;28;20033;-74
2021/07/11 05:21:43;;;;;;;4.75;3.13;;;16.60;99.90;;;16.08;100.00;101260.00;4168461;28;20049;-74
2021/07/11 05:23:44;;;;;;;7.97;4.78;;;16.60;99.90;;;16.08;100.00;101270.63;4167176;28;20022;-74
2021/07/11 05:25:45;;;;;;;7.70;4.10;;;16.60;99.90;;;16.07;100.00;101261.00;4168296;28;20052;-74
2021/07/11 05:27:46;;;;;;;7.07;4.47;;;16.60;99.90;;;16.17;100.00;101260.75;4167368;28;20053;-74
2021/07/11 05:29:47;;;;;;;6.15;3.67;;;16.70;99.90;;;16.23;100.00;101265.34;4168522;28;20100;-74
2021/07/11 05:31:48;;;;;;;7.22;5.03;;;16.70;99.90;;;16.21;100.00;101251.41;4167038;28;20028;-74
2021/07/11 05:33:49;;;;;;;6.15;3.92;;;16.70;99.90;;;16.26;100.00;101257.84;4166835;28;20583;-74
2021/07/11 05:35:50;;;;;;;7.20;4.70;;;16.70;99.90;;;16.22;100.00;101253.88;4167188;28;20037;-74
2021/07/11 05:37:51;;;;;;;8.45;5.20;;;16.80;99.90;;;15.92;100.00;101244.16;4167169;28;20038;-74
2021/07/11 05:39:52;;;;;;;6.80;4.50;;;16.70;99.90;;;16.08;100.00;101251.16;4166853;28;20060;-74
2021/07/11 05:41:52;;;;;;;4.72;4.00;;;16.70;99.90;;;16.13;100.00;101244.31;4163933;28;20026;-74
2021/07/11 05:43:53;;;;;;;7.95;5.63;;;16.80;99.90;;;16.24;100.00;101254.53;4166979;28;20037;-74
2021/07/11 05:45:55;;;;;;;6.57;4.32;;;16.80;99.90;;;16.32;100.00;101241.16;4183457;28;20057;-74
2021/07/11 05:47:56;;;;;;;6.40;3.90;;;16.80;99.90;;;16.37;100.00;101237.91;4167061;28;20026;-74
2021/07/11 05:49:56;;;;;;;7.60;4.03;;;16.90;99.90;;;16.34;100.00;101236.44;4167913;28;20443;-74
2021/07/11 05:51:57;;;;;;;4.22;3.83;;;16.90;99.90;;;16.41;100.00;101224.09;4150630;28;20117;-74
2021/07/11 05:53:58;;;;;;;6.68;4.43;;;17.00;99.90;;;16.45;100.00;101244.03;4167104;28;20393;-74
2021/07/11 05:55:59;;;;;;;6.72;3.85;;;17.00;99.90;;;16.51;100.00;101235.31;4168211;28;20112;-74
2021/07/11 05:58:00;;;;;;;4.85;3.30;;;17.00;99.90;;;16.55;100.00;101249.94;4150549;28;20034;-74
2021/07/11 06:00:02;;;;;;;6.53;4.50;;;17.10;99.90;;;16.45;99.52;101252.00;4168133;28;20396;-74
2021/07/11 06:02:04;;;;;;;6.78;4.13;;;17.10;99.90;;;16.45;99.72;101238.69;4167029;28;20028;-74
2021/07/11 06:04:04;;;;;;;6.63;4.22;;;17.20;99.90;;;16.49;98.55;101247.13;4166510;28;20117;-74
2021/07/11 06:06:06;;;;;;;5.88;4.68;;;17.10;99.90;;;16.44;98.35;101247.69;4168134;28;20057;-74
2021/07/11 06:08:07;;;;;;;9.45;5.13;;;17.20;99.90;;;16.38;99.04;101263.56;4166958;28;20032;-74
2021/07/11 06:10:09;;;;;;;6.70;4.30;;;17.20;99.90;;;16.13;100.00;101281.56;4166968;28;20026;-74
2021/07/11 06:12:11;;;;;;;6.88;5.28;;;17.10;99.90;;;16.19;100.00;101280.84;4166850;28;20029;-73
2021/07/11 06:14:14;;;;;;;6.60;4.72;;;17.10;99.90;;;16.24;100.00;101270.50;4166853;28;20475;-74
2021/07/11 06:16:15;;;;;;;9.02;5.13;;;17.10;99.90;;;16.24;99.92;101267.84;4166636;28;20124;-74
2021/07/11 06:18:16;;;;;;;7.30;4.45;;;17.00;99.90;;;16.34;99.52;101279.06;4150147;28;20148;-74
2021/07/11 06:20:17;;;;;;;8.85;4.85;;;17.00;99.90;;;16.24;100.00;101288.31;4166802;28;20037;-74
2021/07/11 06:22:19;;;;;;;7.93;4.40;;;17.00;99.90;;;16.28;100.00;101292.25;4167833;28;20500;-74
2021/07/11 06:24:20;;;;;;;6.88;4.70;;;17.00;99.90;;;16.49;99.14;101289.72;4151919;28;20014;-74
2021/07/11 06:26:21;;;;;;;6.68;5.38;;;17.00;99.90;;;16.17;99.74;101274.88;4169883;28;20045;-74
2021/07/11 06:28:22;;;;;;;8.85;4.57;;;17.00;99.90;;;16.19;100.00;101278.19;4169792;28;20073;-74
2021/07/11 06:30:23;;;;;;;9.57;4.75;;;16.90;99.90;;;16.22;100.00;101280.50;4169839;28;20033;-74
2021/07/11 06:32:24;;;;;;;8.75;4.97;;;17.00;99.90;;;16.29;100.00;101285.94;4169548;28;20026;-74
2021/07/11 06:34:25;;;;;;;7.10;5.22;;;17.00;99.90;;;16.41;100.00;101288.00;4170641;28;20049;-74
2021/07/11 06:36:26;;;;;;;8.70;5.68;;;17.10;99.90;;;16.44;100.00;101279.63;4169600;28;20022;-74
2021/07/11 06:38:27;;;;;;;10.02;4.63;;;17.10;99.90;;;16.70;98.55;101276.56;4153069;28;20030;-74
2021/07/11 06:40:28;;;;;;;6.47;4.90;;;17.20;99.90;;;16.80;98.08;101268.31;4185432;28;20103;-74
2021/07/11 06:42:29;;;;;;;6.97;5.10;;;17.30;99.90;;;16.78;98.21;101273.00;4169497;28;20163;-74
2021/07/11 06:44:30;;;;;;;6.78;4.25;;;17.40;99.90;;;16.88;96.65;101263.72;4169452;28;20080;-74
2021/07/11 06:46:31;;;;;;;8.52;4.60;;;17.50;99.90;;;16.97;96.78;101257.28;4169465;28;20030;-73
2021/07/11 06:48:32;;;;;;;7.55;5.13;;;17.60;99.90;;;16.90;96.71;101267.03;4168871;28;20026;-74
2021/07/11 06:50:33;;;;;;;8.23;4.53;;;17.60;99.90;;;16.78;96.63;101263.19;4169409;28;20497;-74
2021/07/11 06:52:35;;;;;;;5.82;4.13;;;17.60;99.90;;;16.96;96.72;101257.47;4170536;28;20029;-74
2021/07/11 06:54:36;;;;;;;6.63;4.78;;;17.70;99.90;;;17.12;95.99;101251.94;4152877;28;20030;-74
2021/07/11 06:56:38;;;;;;;6.90;4.10;;;17.90;99.90;;;17.27;95.62;101266.06;4170661;28;20066;-74
2021/07/11 06:58:39;;;;;;;5.72;4.15;;;18.10;99.90;;;17.31;94.25;101269.19;4169420;28;20026;-74
2021/07/11 07:00:40;;;;;;;7.13;4.53;;;18.20;99.90;;;17.39;93.36;101269.91;4169394;28;20404;-74
2021/07/11 07:02:41;;;;;;;5.20;4.40;;;18.20;99.90;;;17.28;93.35;101262.41;4169219;28;20116;-74
2021/07/11 07:04:42;;;;;;;5.45;4.15;;;18.20;99.90;;;17.42;93.25;101272.19;4169985;28;20029;-74
2021/07/11 07:06:43;;;;;;;6.78;4.90;;;18.20;99.90;;;17.47;92.14;101264.44;4169271;28;20033;-74
2021/07/11 07:08:45;;;;;;;8.38;4.93;;;18.30;99.90;;;17.43;92.68;101268.53;4170428;28;20076;-74
2021/07/11 07:10:46;;;;;;;6.82;4.47;;;18.40;99.90;;;17.33;92.82;101269.81;4168914;28;20053;-74
2021/07/11 07:12:47;;;;;;;6.43;4.22;;;18.30;99.90;;;17.51;91.91;101268.41;4152439;28;20069;-74
2021/07/11 07:14:48;;;;;;;5.90;4.43;;;18.30;99.90;;;17.53;91.70;101266.38;4170159;28;20034;-74
2021/07/11 07:16:48;;;;;;;6.85;4.78;;;18.40;99.90;;;17.33;93.37;101267.97;4168841;28;20021;-74
2021/07/11 07:18:49;;;;;;;9.63;4.90;;;18.40;99.90;;;17.33;93.65;101270.66;4168628;28;20040;-74
2021/07/11 07:20:50;;;;;;;9.48;5.03;;;18.40;99.90;;;17.23;94.37;101269.31;4168902;28;20030;-74
2021/07/11 07:22:51;;;;;;;5.07;4.30;;;18.40;99.90;;;17.43;93.29;101271.19;4170118;28;20052;-74
2021/07/11 07:24:52;;;;;;;7.05;4.82;;;18.40;99.90;;;17.53;92.95;101279.69;4168722;28;20056;-74
2021/07/11 07:26:53;;;;;;;7.45;4.55;;;18.50;99.90;;;17.49;92.49;101275.78;4201754;28;20033;-74
2021/07/11 07:28:54;;;;;;;6.22;3.97;;;18.50;99.90;;;17.46;93.72;101276.16;4168630;28;20025;-74
2021/07/11 07:30:55;;;;;;;5.57;4.10;;;18.60;99.90;;;17.58;92.62;101274.69;4169861;28;20029;-73
2021/07/11 07:32:56;;;;;;;4.85;4.22;;;18.50;99.90;;;17.58;91.81;101274.69;4152025;28;20022;-74
2021/07/11 07:34:57;;;;;;;7.93;4.55;;;18.50;99.90;;;17.51;92.72;101279.06;4168256;28;20029;-74
2021/07/11 07:36:59;;;;;;;7.32;4.22;;;18.60;99.90;;;17.47;93.47;101274.31;4169544;28;20445;-74
2021/07/11 07:39:00;;;;;;;6.53;4.55;;;18.50;99.90;;;17.53;93.07;101278.91;4168335;28;20075;-74
2021/07/11 07:41:01;;;;;;;10.23;5.32;;;18.50;99.90;;;17.52;92.84;101277.25;4159935;28;20030;-74
2021/07/11 07:43:02;;;;;;;9.63;4.28;;;18.50;99.90;;;17.57;92.09;101278.34;4168653;28;20037;-74
2021/07/11 07:45:05;;;;;;;6.22;3.92;;;18.50;99.90;;;17.62;92.24;101270.59;4168560;28;20034;-74
2021/07/11 07:47:07;;;;;;;7.38;4.05;;;18.50;99.90;;;17.57;92.68;101281.03;4169598;28;20025;-74
2021/07/11 07:49:08;;;;;;;7.28;4.35;;;18.50;99.90;;;17.58;93.34;101290.69;4168149;28;20053;-74
2021/07/11 07:51:09;;;;;;;5.03;3.90;;;18.50;99.90;;;17.57;92.63;101275.69;4169621;28;20071;-74
2021/07/11 07:53:10;;;;;;;5.75;4.05;;;18.50;99.90;;;17.53;92.54;101274.38;4169543;28;20100;-74
2021/07/11 07:55:13;;;;;;;7.85;5.60;;;18.40;99.90;;;17.58;92.31;101290.69;4168261;28;20100;-74
2021/07/11 07:57:15;;;;;;;6.85;4.30;;;18.50;99.90;;;17.54;92.09;101268.06;4168418;28;20475;-74
2021/07/11 07:59:16;;;;;;;5.18;4.47;;;18.40;99.90;;;17.29;93.50;101269.38;4169565;28;20094;-73
2021/07/11 08:01:17;;;;;;;4.95;4.45;;;18.30;99.90;;;17.58;91.74;101264.00;4169483;28;20029;-74
2021/07/11 08:03:18;;;;;;;8.60;4.78;;;18.40;99.90;;;17.66;92.73;101265.72;4168887;28;20029;-74
2021/07/11 08:05:20;;;;;;;10.35;4.90;;;18.50;99.90;;;17.72;92.01;101270.31;4168287;28;20025;-74
2021/07/11 08:07:24;;;;;;;5.45;4.50;;;18.70;99.90;;;17.58;92.03;101274.69;4168109;28;20087;-73
2021/07/11 08:09:25;;;;;;;8.27;5.00;;;18.70;99.90;;;17.81;90.47;101274.50;4169275;28;20029;-74
2021/07/11 08:11:27;;;;;;;5.25;4.15;;;18.80;99.90;;;17.82;90.11;101275.34;4167871;28;20443;-74
2021/07/11 08:13:28;;;;;;;4.90;4.30;;;18.80;99.90;;;17.76;89.72;101278.75;4169269;28;20021;-74
2021/07/11 08:15:29;;;;;;;6.93;4.55;;;18.80;99.90;;;17.86;88.77;101281.94;4151568;28;20117;-74
2021/07/11 08:17:31;;;;;;;6.90;5.53;;;18.80;99.90;;;17.79;89.83;101286.38;4167992;28;20026;-74
2021/07/11 08:19:32;;;;;;;7.75;4.63;;;18.90;99.90;;;17.41;91.83;101275.06;4168721;28;20101;-74
2021/07/11 08:21:34;;;;;;;6.60;3.63;;;18.80;99.90;;;17.66;90.97;101281.72;4169137;28;20463;-74
2021/07/11 08:23:35;;;;;;;5.85;3.63;;;18.70;99.90;;;17.69;90.11;101276.00;4167586;28;20041;-74
2021/07/11 08:25:35;;;;;;;5.35;4.25;;;18.70;99.90;;;17.58;91.15;101281.84;4167841;28;20043;-74
2021/07/11 08:27:39;;;;;;;5.05;4.10;;;18.50;99.90;;;17.62;90.46;101275.94;4165844;28;20031;-74